Huvudsida
METAR-TAF:

METAR-TAF

Flygplatser :

Brunei flygplats

Brunei, Brunei

latitud: 04-56N, longitud: 114-56E, höjd: 22 m

Aktuellt väderrapport

Denna rapport gjordes för 44 minuter sedan, klockan 09:30 UTC
Vind 8 kt från nord
Temperatur 29°C
Fuktighet 79%
Tryck 1009 hPa
Sikt 10 km eller mer
Spridda moln på en höjd av 1600 ft
Få moln på en höjd av 1700 ft, Cumulonimbus.
Brutna moln på en höjd av 30000 ft

METAR: WBSB 190930Z 35008KT 9999 SCT016 FEW017CB BKN300 29/25 Q1009 NOSIG

Tid: 18:14 (10:14 UTC)

Väderprognos

Denna rapport gjordes för 5 timmar och 24 minuter sedan, klockan 04:50 UTC
Prognos gäller från 19 kl. 06 UTC till 20 kl. 12 UTC
Vind 9 kt från nord
Sikt 10 km eller mer
Spridda moln på en höjd av 1600 ft
Få moln på en höjd av 1700 ft, Cumulonimbus.
Blir
från 19 kl. 12 UTC till 19 kl. 14 UTC
Vind 2 kt från syd/sydväst
Få moln på en höjd av 1500 ft

TAF: WBSB 190450Z 1906/2012 35009KT 9999 SCT016 FEW017CB BECMG 1912/1914 21002KT FEW015

Aktuella väderrapporter och prognoser från 4000 flygplatser (METAR- och TAF-rapporter).

De tillgängliga stationerna syns som gula och röda prickar på kartan.

För musen över prickarna för att se namnen på stationerna.

Klicka sedan för att få väderrapporter och prognoser.

För att ändra kartan: Klicka på de gröna knapparna med ett svart kors på för att zooma in; den gröna knappen med ett streck på för att zooma ut; eller på de gröna pilarna för angränsande kartor.


METAR-TAF: